KSBD/SBD METAR and TAF weather

Enter ICAO airport designator
Station Type Date Time Source
KSBD METAR 2019/02/17 15:47 UTC NOAA

KSBD 171547Z 10004KT 7SM FEW022 07/03 A3007


Station Type Date Time Source
KSBD Decoded METAR 2019/02/17 15:47 UTC NOAA

Norton Air Force Base / San Bern, CA, United States (KSBD) 34-06N 117-14W
Feb 17, 2019 - 10:47 AM EST / 2019.02.17 1547 UTC
Wind: from the E (100 degrees) at 5 MPH (4 KT):0
Visibility: 7 mile(s):0
Sky conditions: mostly clear
Temperature: 44 F (7 C)
Dew Point: 37 F (3 C)
Relative Humidity: 75%
Pressure (altimeter): 30.07 in. Hg (1018 hPa)
ob: KSBD 171547Z 10004KT 7SM FEW022 07/03 A3007
cycle: 16

Station Type Date Time Source
KSBD TAF 2019/02/17 12:22 UTC NOAA

TAF KSBD 171120Z 1712/1812 25005KT P6SM BKN025
FM171900 28012G22KT P6SM -SHRA BKN040
FM180500 26008KT P6SM BKN030


Example: see airport list